Time;durP1;ratioP1;P1;durP2;ratioP2;P2;SDS_P1;SDS_P2;PMS_P1;PMS_P2;Temp;Humidity;BMP_temperature;BMP_pressure;BME280_temperature;BME280_humidity;BME280_pressure;Samples;Min_cycle;Max_cycle;Signal;HPM_P1;HPM_P2
2022/06/08 00:00:21;;;;;;;4.80;3.00;;;;;;;25.61;42.38;100542.02;107081;1283;61233;-82
2022/06/08 00:02:55;;;;;;;5.80;3.40;;;;;;;25.61;42.39;100539.85;106740;1283;61226;-82
2022/06/08 00:05:21;;;;;;;4.80;3.10;;;;;;;25.61;42.36;100538.06;106816;1284;74757;-83
2022/06/08 00:07:46;;;;;;;5.50;3.10;;;;;;;25.61;42.50;100539.34;107076;1284;61260;-83
2022/06/08 00:10:12;;;;;;;4.70;3.00;;;;;;;25.61;42.46;100534.14;106957;1284;61238;-78
2022/06/08 00:12:38;;;;;;;5.50;3.40;;;;;;;25.61;42.43;100532.35;106840;1283;61264;-84
2022/06/08 00:15:08;;;;;;;5.10;3.10;;;;;;;25.61;42.47;100531.23;106822;1284;61275;-85
2022/06/08 00:17:33;;;;;;;5.10;3.00;;;;;;;25.61;42.51;100527.32;106833;1284;61129;-83
2022/06/08 00:19:59;;;;;;;6.10;3.30;;;;;;;25.61;42.56;100524.77;107250;1282;61246;-82
2022/06/08 00:22:24;;;;;;;5.70;3.00;;;;;;;25.61;42.47;100518.84;106880;1284;61342;-82
2022/06/08 00:24:50;;;;;;;5.80;3.20;;;;;;;25.60;42.56;100514.53;106818;1284;61209;-82
2022/06/08 00:27:16;;;;;;;5.40;3.10;;;;;;;25.60;42.58;100514.73;106846;1284;61270;-82
2022/06/08 00:29:42;;;;;;;3.90;2.90;;;;;;;25.60;42.65;100511.49;106901;1284;61242;-81
2022/06/08 00:32:08;;;;;;;6.10;3.40;;;;;;;25.60;42.56;100515.27;106852;1284;61269;-82
2022/06/08 00:34:34;;;;;;;5.20;2.80;;;;;;;25.60;42.52;100516.52;106885;1284;61215;-83
2022/06/08 00:37:00;;;;;;;6.30;3.20;;;;;;;25.60;42.61;100515.11;106843;1284;61280;-81
2022/06/08 00:39:26;;;;;;;5.20;3.20;;;;;;;25.60;42.73;100515.42;106833;1284;61243;-81
2022/06/08 00:41:53;;;;;;;4.70;3.00;;;;;;;25.60;42.71;100515.52;107224;1284;61188;-82
2022/06/08 00:44:24;;;;;;;5.30;3.20;;;;;;;25.59;42.69;100514.08;106883;1284;61311;-82
2022/06/08 00:46:50;;;;;;;4.90;2.90;;;;;;;25.59;42.72;100512.80;106667;1284;75869;-79
2022/06/08 00:49:47;;;;;;;5.30;3.10;;;;;;;25.60;42.71;100512.95;106879;1284;61734;-82
2022/06/08 00:52:12;;;;;;;4.40;2.90;;;;;;;25.59;42.76;100513.17;106705;1284;61289;-82
2022/06/08 00:54:40;;;;;;;5.20;3.40;;;;;;;25.59;42.81;100515.34;107234;1283;61249;-82
2022/06/08 00:57:19;;;;;;;4.70;2.90;;;;;;;25.59;42.85;100509.05;106835;1284;74612;-82
2022/06/08 01:00:14;;;;;;;6.40;3.50;;;;;;;25.59;42.74;100507.83;106859;1284;61487;-82
2022/06/08 01:02:40;;;;;;;4.90;3.00;;;;;;;25.59;42.94;100507.66;106687;1284;61353;-84
2022/06/08 01:05:34;;;;;;;5.40;3.30;;;;;;;25.59;42.95;100504.59;106709;1283;61726;-82
2022/06/08 01:08:05;;;;;;;5.60;3.00;;;;;;;25.58;43.06;100504.23;107216;1283;74673;-82
2022/06/08 01:10:37;;;;;;;6.40;3.00;;;;;;;25.59;42.82;100502.45;107236;1283;61244;-82
2022/06/08 01:13:04;;;;;;;6.70;3.10;;;;;;;25.59;42.86;100500.64;106626;1284;61257;-82
2022/06/08 01:15:30;;;;;;;5.30;3.20;;;;;;;25.58;43.05;100496.34;106886;1283;71562;-83
2022/06/08 01:17:56;;;;;;;4.10;2.90;;;;;;;25.58;43.14;100492.89;106686;1283;61465;-81
2022/06/08 01:20:22;;;;;;;5.30;3.00;;;;;;;25.58;42.98;100483.73;106655;1284;61353;-81
2022/06/08 01:22:48;;;;;;;4.60;2.70;;;;;;;25.58;43.07;100475.59;106858;1286;61250;-81
2022/06/08 01:25:15;;;;;;;5.20;3.30;;;;;;;25.58;43.09;100472.17;106862;1286;61278;-84
2022/06/08 01:28:18;;;;;;;5.50;3.40;;;;;;;25.58;43.01;100478.69;106876;1283;61355;-83
2022/06/08 01:30:54;;;;;;;5.50;2.90;;;;;;;25.58;43.12;100478.52;107141;1283;61372;-81
2022/06/08 01:33:27;;;;;;;5.30;3.00;;;;;;;25.58;43.12;100479.98;106878;1283;61106;-85
2022/06/08 01:36:25;;;;;;;4.80;2.90;;;;;;;25.58;43.13;100478.02;106881;1283;72036;-83
2022/06/08 01:39:08;;;;;;;4.20;2.80;;;;;;;25.57;43.18;100479.29;106252;1289;74652;-81
2022/06/08 01:42:05;;;;;;;6.20;2.90;;;;;;;25.57;43.22;100477.49;106259;1289;61274;-83
2022/06/08 01:47:54;;;;;;;5.20;3.20;;;;;;;25.56;43.45;100479.77;105405;1297;72631;-82
2022/06/08 01:50:54;;;;;;;4.70;3.20;;;;;;;25.57;43.41;100481.17;105458;1297;75695;-82
2022/06/08 01:53:44;;;;;;;4.90;2.80;;;;;;;25.56;43.39;100486.41;105441;1297;61381;-83
2022/06/08 01:56:25;;;;;;;5.60;2.90;;;;;;;25.57;43.54;100487.50;105486;1295;61334;-82
2022/06/08 01:58:53;;;;;;;4.90;3.00;;;;;;;25.57;43.53;100485.34;105446;1298;73010;-81
2022/06/08 02:01:57;;;;;;;5.60;3.20;;;;;;;25.56;43.64;100485.53;105393;1297;74802;-81
2022/06/08 02:04:46;;;;;;;5.00;3.00;;;;;;;25.56;43.41;100487.17;105500;1295;61160;-81
2022/06/08 02:07:20;;;;;;;4.40;2.80;;;;;;;25.56;43.54;100482.67;105517;1295;61469;-81
2022/06/08 02:10:03;;;;;;;5.40;3.20;;;;;;;25.56;43.53;100487.22;105531;1295;74032;-84
2022/06/08 02:12:30;;;;;;;6.00;3.20;;;;;;;25.56;43.55;100486.30;105515;1295;74637;-82
2022/06/08 02:15:03;;;;;;;6.30;3.20;;;;;;;25.56;43.65;100484.52;105455;1297;61201;-81
2022/06/08 02:17:37;;;;;;;5.10;3.30;;;;;;;25.56;43.58;100485.02;106188;1289;61204;-82
2022/06/08 02:20:26;;;;;;;4.90;2.90;;;;;;;25.56;43.64;100488.27;106373;1289;72871;-81
2022/06/08 02:22:58;;;;;;;4.20;2.80;;;;;;;25.56;43.52;100489.71;107009;1283;76016;-81
2022/06/08 02:25:34;;;;;;;4.60;3.10;;;;;;;25.56;43.45;100489.00;106870;1283;61300;-81
2022/06/08 02:28:21;;;;;;;6.00;3.00;;;;;;;25.57;43.69;100487.86;106902;1284;61238;-82
2022/06/08 02:30:52;;;;;;;4.80;3.00;;;;;;;25.56;43.84;100482.16;106673;1284;72967;-83
2022/06/08 02:36:49;;;;;;;5.90;3.00;;;;;;;25.56;43.73;100487.04;106915;1283;61128;-82
2022/06/08 02:39:37;;;;;;;6.00;3.40;;;;;;;25.55;43.81;100491.25;106090;1290;61740;-80
2022/06/08 02:42:07;;;;;;;6.30;3.00;;;;;;;25.56;43.87;100493.20;106145;1290;72768;-85
2022/06/08 02:44:32;;;;;;;4.40;2.90;;;;;;;25.55;43.97;100491.23;105929;1292;74564;-82
2022/06/08 02:47:15;;;;;;;6.00;3.00;;;;;;;25.56;44.09;100491.37;105924;1290;61262;-82
2022/06/08 02:49:41;;;;;;;4.10;2.70;;;;;;;25.56;43.88;100492.62;105756;1290;61183;-82
2022/06/08 02:52:19;;;;;;;6.90;3.30;;;;;;;25.55;43.93;100484.73;106152;1290;61324;-83
2022/06/08 02:54:45;;;;;;;5.80;3.30;;;;;;;25.56;44.08;100479.48;106031;1292;73565;-81
2022/06/08 02:57:38;;;;;;;4.50;2.80;;;;;;;25.55;44.01;100474.84;105971;1292;61307;-81
2022/06/08 03:00:15;;;;;;;4.20;2.90;;;;;;;25.56;44.06;100476.77;106157;1290;61611;-83
2022/06/08 03:03:19;;;;;;;5.00;2.90;;;;;;;25.56;43.95;100476.23;105933;1291;72820;-81
2022/06/08 03:05:50;;;;;;;5.10;3.00;;;;;;;25.55;43.94;100483.18;105405;1297;74824;-81
2022/06/08 03:08:23;;;;;;;4.80;2.90;;;;;;;25.56;44.00;100494.64;105407;1297;61461;-81
2022/06/08 03:10:49;;;;;;;5.00;3.10;;;;;;;25.56;44.10;100503.09;105411;1297;61419;-83
2022/06/08 03:13:19;;;;;;;5.30;3.10;;;;;;;25.56;44.16;100511.34;105574;1290;59839;-81
2022/06/08 03:15:50;;;;;;;5.40;2.90;;;;;;;25.56;44.23;100512.79;106063;1290;75770;-82
2022/06/08 03:18:16;;;;;;;4.50;2.90;;;;;;;25.56;44.03;100512.25;105899;1291;61317;-82
2022/06/08 03:20:42;;;;;;;5.10;3.10;;;;;;;25.56;44.23;100516.54;106068;1290;61252;-84
2022/06/08 03:23:07;;;;;;;5.80;3.00;;;;;;;25.56;44.24;100508.23;106128;1290;61944;-81
2022/06/08 03:25:33;;;;;;;5.70;3.20;;;;;;;25.57;44.22;100507.86;106005;1290;61420;-81
2022/06/08 03:27:59;;;;;;;5.10;3.20;;;;;;;25.57;44.28;100510.94;106122;1290;59314;-82
2022/06/08 03:30:25;;;;;;;4.90;3.20;;;;;;;25.57;44.20;100508.20;106084;1290;61409;-82
2022/06/08 03:32:51;;;;;;;5.10;3.10;;;;;;;25.57;44.42;100503.14;106246;1290;61297;-82
2022/06/08 03:35:18;;;;;;;6.90;3.20;;;;;;;25.57;44.26;100499.72;106068;1290;73196;-85
2022/06/08 03:37:43;;;;;;;4.80;3.20;;;;;;;25.57;44.21;100498.24;105944;1290;61411;-83
2022/06/08 03:40:09;;;;;;;5.00;2.90;;;;;;;25.57;44.42;100501.48;106352;1283;62054;-81
2022/06/08 03:42:35;;;;;;;5.30;3.10;;;;;;;25.57;44.32;100506.19;106929;1283;61138;-82
2022/06/08 03:45:01;;;;;;;5.30;3.10;;;;;;;25.57;44.39;100512.70;106915;1283;61310;-81
2022/06/08 03:47:29;;;;;;;6.20;3.00;;;;;;;25.57;44.37;100518.63;106950;1284;61252;-82
2022/06/08 03:49:57;;;;;;;4.90;3.30;;;;;;;25.57;44.43;100523.34;106623;1284;74695;-81
2022/06/08 03:52:25;;;;;;;5.20;3.00;;;;;;;25.57;44.37;100525.33;106804;1283;61679;-82
2022/06/08 03:54:55;;;;;;;5.50;3.20;;;;;;;25.57;44.23;100522.45;106805;1286;61404;-82
2022/06/08 03:57:20;;;;;;;6.50;3.00;;;;;;;25.56;44.14;100524.48;106915;1284;73583;-81
2022/06/08 03:59:47;;;;;;;6.00;3.40;;;;;;;25.55;44.07;100530.67;106679;1283;61333;-81
2022/06/08 04:02:12;;;;;;;6.60;3.60;;;;;;;25.56;44.04;100533.73;106660;1283;61853;-81
2022/06/08 04:04:38;;;;;;;7.80;3.60;;;;;;;25.55;44.15;100538.30;106757;1283;61270;-83
2022/06/08 04:07:04;;;;;;;7.30;3.70;;;;;;;25.54;43.97;100541.08;106737;1283;61362;-80
2022/06/08 04:09:30;;;;;;;6.80;3.70;;;;;;;25.52;44.05;100542.70;106872;1283;61265;-82
2022/06/08 04:11:55;;;;;;;6.40;4.20;;;;;;;25.50;43.89;100542.53;106864;1283;61349;-84
2022/06/08 04:14:21;;;;;;;6.80;4.00;;;;;;;25.49;43.80;100537.44;107089;1283;61448;-82
2022/06/08 04:16:47;;;;;;;9.30;4.20;;;;;;;25.48;43.90;100534.28;106814;1283;61388;-82
2022/06/08 04:19:13;;;;;;;10.80;4.30;;;;;;;25.46;43.78;100534.83;106819;1283;61539;-80
2022/06/08 04:21:40;;;;;;;12.20;4.20;;;;;;;25.45;43.74;100533.16;106592;1283;61388;-81
2022/06/08 04:24:07;;;;;;;13.90;4.50;;;;;;;25.43;43.66;100538.31;106813;1286;61127;-81
2022/06/08 04:26:33;;;;;;;7.60;3.60;;;;;;;25.43;43.73;100541.77;106827;1283;61337;-82
2022/06/08 04:28:58;;;;;;;8.10;4.00;;;;;;;25.42;43.69;100540.19;106673;1283;62148;-83
2022/06/08 04:31:24;;;;;;;7.00;4.10;;;;;;;25.42;43.65;100536.74;106629;1283;61291;-81
2022/06/08 04:33:52;;;;;;;8.90;4.00;;;;;;;25.42;43.70;100538.05;106488;1283;61428;-81
2022/06/08 04:36:18;;;;;;;15.10;4.20;;;;;;;25.41;43.55;100540.81;106831;1283;61296;-82
2022/06/08 04:38:43;;;;;;;7.40;3.80;;;;;;;25.40;43.68;100538.91;106675;1283;61401;-83
2022/06/08 04:41:09;;;;;;;10.80;4.40;;;;;;;25.40;43.53;100541.09;106389;1283;61279;-81
2022/06/08 04:43:35;;;;;;;7.20;4.20;;;;;;;25.40;43.59;100538.08;106676;1283;61285;-82
2022/06/08 04:46:00;;;;;;;11.10;4.00;;;;;;;25.40;43.68;100536.83;106240;1283;61210;-80
2022/06/08 04:48:26;;;;;;;16.70;4.20;;;;;;;25.40;43.69;100538.61;106319;1283;61269;-80
2022/06/08 04:50:52;;;;;;;10.00;4.50;;;;;;;25.40;43.65;100543.51;106401;1284;61250;-81
2022/06/08 04:53:18;;;;;;;12.70;5.00;;;;;;;25.38;43.70;100549.23;106545;1283;61337;-81
2022/06/08 04:55:43;;;;;;;18.80;5.00;;;;;;;25.37;43.85;100551.88;106352;1283;61488;-80
2022/06/08 04:58:09;;;;;;;12.70;4.60;;;;;;;25.35;43.74;100549.75;105977;1283;61904;-81
2022/06/08 05:00:35;;;;;;;11.60;4.30;;;;;;;25.33;43.70;100552.63;106314;1283;61022;-81
2022/06/08 05:03:00;;;;;;;9.10;3.90;;;;;;;25.31;43.88;100555.23;106671;1283;61316;-81
2022/06/08 05:05:27;;;;;;;10.10;5.10;;;;;;;25.31;43.94;100553.70;106148;1283;61357;-81
2022/06/08 05:07:53;;;;;;;10.80;4.40;;;;;;;25.30;43.89;100550.34;106037;1283;61355;-81
2022/06/08 05:10:19;;;;;;;11.90;4.10;;;;;;;25.30;44.03;100546.77;105940;1283;61397;-81
2022/06/08 05:12:45;;;;;;;9.30;4.30;;;;;;;25.27;44.09;100543.52;105832;1283;61381;-83
2022/06/08 05:15:16;;;;;;;9.80;4.10;;;;;;;25.29;44.00;100541.98;105920;1283;61269;-81
2022/06/08 05:17:41;;;;;;;9.80;3.90;;;;;;;25.30;44.09;100545.80;106176;1283;61598;-79
2022/06/08 05:20:08;;;;;;;7.40;4.20;;;;;;;25.29;44.23;100552.60;106633;1283;61397;-81
2022/06/08 05:22:34;;;;;;;10.50;4.80;;;;;;;25.24;44.35;100555.38;106394;1283;61246;-80
2022/06/08 05:25:00;;;;;;;15.50;4.20;;;;;;;25.14;44.38;100555.98;105831;1284;61249;-81
2022/06/08 05:27:26;;;;;;;12.70;3.70;;;;;;;25.10;44.71;100561.89;106081;1283;61332;-81
2022/06/08 05:29:52;;;;;;;11.70;4.20;;;;;;;25.11;44.59;100563.09;106087;1283;61453;-82
2022/06/08 05:32:17;;;;;;;9.70;4.30;;;;;;;25.11;44.72;100563.61;106075;1283;61206;-82
2022/06/08 05:34:43;;;;;;;10.20;4.20;;;;;;;25.10;44.79;100561.52;106151;1283;61304;-82
2022/06/08 05:37:09;;;;;;;8.20;4.30;;;;;;;25.11;44.73;100562.15;106138;1283;76007;-84
2022/06/08 05:39:34;;;;;;;9.80;3.80;;;;;;;25.13;44.78;100564.54;106469;1283;61235;-82
2022/06/08 05:42:00;;;;;;;11.90;4.50;;;;;;;25.10;44.88;100569.31;106143;1283;61362;-82
2022/06/08 05:44:25;;;;;;;11.70;3.90;;;;;;;25.04;44.70;100571.23;106127;1283;61262;-81
2022/06/08 05:46:51;;;;;;;13.40;4.00;;;;;;;25.00;44.90;100569.45;106420;1283;61292;-81
2022/06/08 05:49:17;;;;;;;20.80;4.80;;;;;;;25.00;44.96;100570.57;106196;1283;61353;-81
2022/06/08 05:51:43;;;;;;;14.90;4.40;;;;;;;25.02;44.98;100575.08;106121;1283;61568;-81
2022/06/08 05:54:08;;;;;;;12.00;4.40;;;;;;;25.03;45.11;100569.71;105820;1284;61399;-81
2022/06/08 05:56:34;;;;;;;13.40;3.60;;;;;;;25.04;45.18;100571.08;106125;1283;61269;-83
2022/06/08 05:59:00;;;;;;;10.90;4.10;;;;;;;25.07;45.32;100567.07;105712;1284;61200;-82
2022/06/08 06:01:25;;;;;;;19.80;4.10;;;;;;;25.09;45.07;100566.14;106121;1283;63785;-81
2022/06/08 06:03:51;;;;;;;21.90;4.40;;;;;;;25.09;45.11;100563.10;106255;1283;61851;-86
2022/06/08 06:06:17;;;;;;;17.40;4.60;;;;;;;25.09;45.28;100563.41;106195;1283;61121;-82
2022/06/08 06:08:45;;;;;;;18.10;3.60;;;;;;;25.11;45.25;100562.72;106239;1283;61293;-82
2022/06/08 06:11:15;;;;;;;15.70;3.50;;;;;;;25.14;45.51;100562.09;106457;1283;74610;-82
2022/06/08 06:13:41;;;;;;;11.70;3.50;;;;;;;25.15;45.26;100564.29;105408;1284;1225254;-82
2022/06/08 06:16:07;;;;;;;17.60;3.70;;;;;;;25.19;45.50;100559.81;106230;1283;61294;-83
2022/06/08 06:18:32;;;;;;;12.70;3.60;;;;;;;25.22;45.41;100566.51;106172;1283;62162;-81
2022/06/08 06:20:58;;;;;;;13.00;3.80;;;;;;;25.24;45.23;100566.33;105882;1283;61226;-81
2022/06/08 06:23:25;;;;;;;8.10;3.40;;;;;;;25.22;45.10;100564.73;106443;1282;61307;-81
2022/06/08 06:25:52;;;;;;;12.30;3.60;;;;;;;25.13;45.16;100569.04;106410;1283;61215;-80
2022/06/08 06:28:18;;;;;;;14.60;3.60;;;;;;;25.08;45.06;100566.19;105998;1284;61368;-80
2022/06/08 06:30:44;;;;;;;12.10;3.60;;;;;;;25.09;45.15;100564.34;106155;1282;61289;-80
2022/06/08 06:33:11;;;;;;;8.20;3.10;;;;;;;25.11;45.13;100565.59;106294;1283;61384;-80
2022/06/08 06:35:37;;;;;;;13.90;3.90;;;;;;;25.06;44.96;100570.90;106951;1283;61331;-80
2022/06/08 06:38:03;;;;;;;12.00;3.50;;;;;;;25.04;44.98;100564.05;106502;1283;61193;-80
2022/06/08 06:40:29;;;;;;;15.40;4.10;;;;;;;25.05;44.87;100558.02;106093;1283;62529;-81
2022/06/08 06:42:54;;;;;;;18.10;3.50;;;;;;;25.08;44.97;100556.23;106342;1283;61500;-81
2022/06/08 06:45:20;;;;;;;15.80;3.40;;;;;;;25.11;45.09;100556.72;106326;1283;61349;-80
2022/06/08 06:47:45;;;;;;;14.00;3.90;;;;;;;25.16;45.20;100559.05;106321;1283;63148;-80
2022/06/08 06:50:13;;;;;;;17.90;3.90;;;;;;;25.14;45.21;100560.82;106401;1283;61205;-81
2022/06/08 06:52:39;;;;;;;10.40;3.70;;;;;;;25.14;45.32;100554.30;106230;1283;74064;-80
2022/06/08 06:55:04;;;;;;;14.40;4.00;;;;;;;25.17;45.52;100549.18;106012;1283;61320;-80
2022/06/08 06:57:30;;;;;;;8.90;3.50;;;;;;;25.19;45.64;100545.23;106007;1283;61237;-80
2022/06/08 06:59:55;;;;;;;9.50;3.40;;;;;;;25.23;45.64;100541.82;106511;1283;61319;-81
2022/06/08 07:02:21;;;;;;;12.80;3.60;;;;;;;25.21;45.44;100546.26;106493;1283;61368;-80
2022/06/08 07:04:47;;;;;;;12.70;3.70;;;;;;;25.13;45.09;100537.83;105969;1283;73826;-81
2022/06/08 07:07:12;;;;;;;10.40;3.40;;;;;;;25.11;45.19;100532.61;106032;1283;63078;-81
2022/06/08 07:09:38;;;;;;;7.60;3.40;;;;;;;25.10;45.01;100534.88;106058;1282;61438;-81
2022/06/08 07:12:06;;;;;;;8.40;3.30;;;;;;;25.12;45.09;100533.61;105908;1283;61257;-81
2022/06/08 07:14:31;;;;;;;8.60;3.30;;;;;;;25.15;45.15;100535.84;105894;1283;61277;-80
2022/06/08 07:16:57;;;;;;;7.60;3.30;;;;;;;25.20;45.04;100544.41;106026;1283;63738;-80
2022/06/08 07:19:23;;;;;;;7.50;3.10;;;;;;;25.21;45.00;100544.66;106346;1283;61327;-80
2022/06/08 07:21:48;;;;;;;9.50;3.00;;;;;;;25.20;45.06;100547.08;106511;1283;61214;-80
2022/06/08 07:24:19;;;;;;;7.40;3.30;;;;;;;25.23;45.06;100546.77;105633;1282;59695;-81
2022/06/08 07:26:45;;;;;;;7.00;3.10;;;;;;;25.26;44.89;100546.30;106306;1285;72661;-81
2022/06/08 07:29:11;;;;;;;11.50;3.50;;;;;;;25.23;44.88;100547.89;106359;1283;61222;-81
2022/06/08 07:31:36;;;;;;;8.80;3.50;;;;;;;25.25;44.90;100552.21;106105;1282;61290;-81
2022/06/08 07:34:02;;;;;;;13.60;3.90;;;;;;;25.27;44.84;100551.46;106403;1283;61299;-79
2022/06/08 07:36:28;;;;;;;11.00;3.70;;;;;;;25.30;45.05;100546.53;106356;1282;63629;-80
2022/06/08 07:38:54;;;;;;;8.00;3.60;;;;;;;25.34;45.08;100550.56;106242;1283;61259;-80
2022/06/08 07:41:19;;;;;;;9.40;3.40;;;;;;;25.32;44.96;100548.95;105952;1283;75836;-81
2022/06/08 07:43:45;;;;;;;12.30;3.30;;;;;;;25.32;44.97;100545.08;106415;1283;61247;-81
2022/06/08 07:46:10;;;;;;;6.20;3.00;;;;;;;25.30;44.76;100539.69;106050;1283;61305;-79
2022/06/08 07:51:20;;;;;;;5.80;3.10;;;;;;;25.08;44.55;100538.51;105840;1282;75658;-81
2022/06/08 07:53:45;;;;;;;6.00;3.40;;;;;;;25.09;44.71;100539.64;105843;1283;63878;-80
2022/06/08 07:56:11;;;;;;;7.30;3.10;;;;;;;25.05;44.67;100543.10;106049;1283;61246;-80
2022/06/08 07:58:37;;;;;;;8.70;3.40;;;;;;;25.01;44.63;100537.90;105774;1283;61291;-80
2022/06/08 08:01:03;;;;;;;7.80;3.30;;;;;;;25.03;44.64;100537.10;105858;1283;61430;-80
2022/06/08 08:03:28;;;;;;;9.10;3.70;;;;;;;25.08;44.66;100537.39;105866;1283;74753;-81
2022/06/08 08:05:54;;;;;;;6.50;3.00;;;;;;;25.10;44.58;100535.77;105852;1283;63659;-80
2022/06/08 08:08:20;;;;;;;6.70;2.90;;;;;;;25.15;44.70;100531.57;106064;1283;61236;-80
2022/06/08 08:10:45;;;;;;;5.90;3.10;;;;;;;25.20;44.64;100534.34;106119;1283;61269;-80
2022/06/08 08:13:12;;;;;;;5.40;3.30;;;;;;;25.23;44.52;100535.42;105683;1286;61401;-82
2022/06/08 08:15:38;;;;;;;6.90;3.00;;;;;;;25.26;44.58;100535.39;105847;1285;61423;-79
2022/06/08 08:18:03;;;;;;;5.80;3.20;;;;;;;25.25;44.52;100536.14;106364;1283;61697;-80
2022/06/08 08:20:30;;;;;;;6.40;2.80;;;;;;;25.28;44.37;100529.98;106344;1283;61830;-85
2022/06/08 08:22:56;;;;;;;5.10;2.80;;;;;;;25.32;44.41;100522.61;106626;1283;61238;-80
2022/06/08 08:25:22;;;;;;;5.80;3.10;;;;;;;25.36;44.51;100523.90;106311;1283;61385;-80
2022/06/08 08:27:48;;;;;;;6.50;3.00;;;;;;;25.40;44.46;100520.58;106169;1283;61417;-80
2022/06/08 08:30:15;;;;;;;6.60;3.00;;;;;;;25.44;44.68;100519.83;106117;1283;61234;-80
2022/06/08 08:32:41;;;;;;;8.50;3.30;;;;;;;25.48;44.58;100523.30;106150;1284;61388;-80
2022/06/08 08:35:07;;;;;;;4.70;2.60;;;;;;;25.52;44.58;100516.98;106457;1283;61429;-81
2022/06/08 08:37:33;;;;;;;6.60;2.80;;;;;;;25.54;44.49;100516.00;106169;1283;61396;-80
2022/06/08 08:39:58;;;;;;;10.10;3.30;;;;;;;25.56;44.55;100516.55;106317;1283;61366;-81
2022/06/08 08:42:24;;;;;;;6.50;3.20;;;;;;;25.58;44.36;100514.00;106193;1283;61383;-81
2022/06/08 08:45:25;;;;;;;6.70;3.00;;;;;;;25.60;44.36;100516.22;106491;1283;73696;-81
2022/06/08 08:48:27;;;;;;;5.00;2.60;;;;;;;25.61;44.29;100518.98;105618;1289;75932;-81
2022/06/08 08:51:25;;;;;;;4.40;2.60;;;;;;;25.59;44.14;100516.64;106863;1289;60538;-81
2022/06/08 08:54:22;;;;;;;5.60;2.80;;;;;;;25.57;43.96;100515.57;106134;1289;61121;-80
2022/06/08 08:56:48;;;;;;;5.70;2.50;;;;;;;25.57;44.04;100513.61;105596;1289;73739;-82
2022/06/08 08:59:19;;;;;;;7.40;2.90;;;;;;;25.56;43.83;100505.92;105733;1288;61248;-80
2022/06/08 09:01:46;;;;;;;5.60;2.90;;;;;;;25.58;43.88;100510.95;107184;1288;60396;-80
2022/06/08 09:04:22;;;;;;;5.90;3.10;;;;;;;25.60;43.86;100512.00;107032;1289;59613;-81
2022/06/08 09:06:48;;;;;;;5.90;2.90;;;;;;;25.64;43.85;100511.55;106122;1289;74157;-80
2022/06/08 09:09:16;;;;;;;5.70;2.60;;;;;;;25.66;43.83;100515.77;105648;1289;61317;-81
2022/06/08 09:11:43;;;;;;;6.10;2.70;;;;;;;25.69;43.78;100509.79;105675;1289;61438;-82
2022/06/08 09:14:22;;;;;;;6.70;2.50;;;;;;;25.69;43.73;100508.30;105559;1289;61320;-80
2022/06/08 09:16:54;;;;;;;6.60;2.10;;;;;;;25.67;43.64;100512.78;105795;1289;73565;-80
2022/06/08 09:19:32;;;;;;;7.80;2.60;;;;;;;25.67;43.49;100504.36;105509;1289;75802;-80
2022/06/08 09:22:03;;;;;;;10.80;2.90;;;;;;;25.67;43.19;100502.95;107027;1282;61287;-80
2022/06/08 09:24:47;;;;;;;13.20;2.80;;;;;;;25.69;43.34;100498.78;106403;1283;61154;-80
2022/06/08 09:27:22;;;;;;;13.70;2.60;;;;;;;25.69;43.37;100503.25;106084;1283;72600;-78
2022/06/08 09:30:12;;;;;;;9.30;2.90;;;;;;;25.71;43.14;100503.30;106376;1283;74788;-78
2022/06/08 09:32:39;;;;;;;8.60;2.50;;;;;;;25.70;43.12;100498.52;106066;1283;61291;-78
2022/06/08 09:35:18;;;;;;;7.40;2.30;;;;;;;25.70;43.17;100497.58;106331;1283;61371;-79
2022/06/08 09:37:44;;;;;;;9.30;2.70;;;;;;;25.71;43.03;100497.30;107754;1283;73836;-79
2022/06/08 09:40:36;;;;;;;8.50;2.60;;;;;;;25.72;43.16;100490.71;107841;1282;59356;-79
2022/06/08 09:42:59;;;;;;;4.30;2.40;;;;;;;25.73;42.99;100493.52;107661;1283;60791;-79
2022/06/08 09:46:09;;;;;;;6.40;2.40;;;;;;;25.73;43.04;100491.17;107147;1282;59877;-80
2022/06/08 09:52:10;;;;;;;4.80;2.50;;;;;;;25.75;42.78;100481.59;105647;1289;73497;-82
2022/06/08 09:55:08;;;;;;;3.80;2.40;;;;;;;25.75;42.91;100475.48;105357;1289;61085;-82
2022/06/08 09:57:52;;;;;;;4.90;2.50;;;;;;;25.76;42.82;100472.49;105566;1289;61235;-79
2022/06/08 10:00:43;;;;;;;6.30;2.40;;;;;;;25.76;42.69;100475.95;105610;1289;72660;-79
2022/06/08 10:03:39;;;;;;;8.30;2.70;;;;;;;25.75;42.61;100466.60;105647;1288;73705;-80
2022/06/08 10:06:07;;;;;;;6.60;2.20;;;;;;;25.74;42.58;100465.66;105888;1288;61161;-80
2022/06/08 10:08:48;;;;;;;5.70;2.40;;;;;;;25.74;42.47;100461.54;105983;1289;61884;-82
2022/06/08 10:11:46;;;;;;;5.00;2.50;;;;;;;25.74;42.51;100454.51;105988;1289;72813;-81
2022/06/08 10:14:45;;;;;;;6.00;2.60;;;;;;;25.73;42.42;100453.81;105860;1289;75563;-80
2022/06/08 10:17:32;;;;;;;5.20;2.30;;;;;;;25.73;42.46;100453.11;105918;1289;61333;-80
2022/06/08 10:20:00;;;;;;;4.20;2.50;;;;;;;25.73;42.43;100452.91;105731;1290;61303;-83
2022/06/08 10:22:29;;;;;;;5.90;2.40;;;;;;;25.73;42.42;100450.05;105879;1290;72912;-81
2022/06/08 10:25:12;;;;;;;;;;;;;;;25.73;42.35;100444.44;105390;1291;74666;-81
2022/06/08 10:28:02;;;;;;;6.20;2.20;;;;;;;25.71;42.37;100442.89;105756;1290;61236;-82
2022/06/08 10:30:40;;;;;;;4.50;2.30;;;;;;;25.72;42.26;100448.39;105828;1290;61308;-83
2022/06/08 10:33:11;;;;;;;4.10;2.30;;;;;;;25.72;42.25;100443.33;105907;1290;72656;-83
2022/06/08 10:35:46;;;;;;;4.20;2.30;;;;;;;25.72;42.31;100438.13;105750;1290;75836;-80
2022/06/08 10:38:20;;;;;;;4.90;2.40;;;;;;;25.72;42.44;100441.68;105567;1290;61086;-81
2022/06/08 10:40:47;;;;;;;4.50;2.40;;;;;;;25.72;42.29;100434.28;105722;1291;61644;-79
2022/06/08 10:43:24;;;;;;;4.20;2.10;;;;;;;25.73;42.41;100429.33;105985;1290;72624;-80
2022/06/08 10:46:04;;;;;;;4.20;2.40;;;;;;;25.73;42.23;100424.09;105959;1290;75107;-82
2022/06/08 10:48:48;;;;;;;7.20;2.30;;;;;;;25.73;42.20;100419.80;105946;1290;61368;-82
2022/06/08 10:51:36;;;;;;;4.80;2.30;;;;;;;25.73;42.23;100417.59;105778;1290;61236;-81
2022/06/08 10:56:51;;;;;;;3.20;2.00;;;;;;;25.72;42.07;100418.05;105502;1289;75134;-80
2022/06/08 10:59:25;;;;;;;4.80;2.20;;;;;;;25.71;41.91;100412.60;105992;1289;61282;-79
2022/06/08 11:02:21;;;;;;;4.70;2.50;;;;;;;25.71;41.80;100406.15;106001;1289;61287;-81
2022/06/08 11:04:51;;;;;;;4.00;2.30;;;;;;;25.71;41.91;100409.19;106149;1288;72631;-80
2022/06/08 11:07:18;;;;;;;3.90;2.40;;;;;;;25.71;41.86;100408.61;106123;1289;77024;-81
2022/06/08 11:10:11;;;;;;;3.00;1.90;;;;;;;25.71;41.79;100406.83;106011;1289;61161;-80
2022/06/08 11:12:46;;;;;;;4.30;2.10;;;;;;;25.72;41.67;100400.61;106128;1289;61341;-79
2022/06/08 11:15:33;;;;;;;3.60;2.10;;;;;;;25.72;41.63;100397.88;106207;1288;73940;-80
2022/06/08 11:18:01;;;;;;;4.50;2.40;;;;;;;25.72;41.63;100395.52;106047;1289;74737;-81
2022/06/08 11:20:38;;;;;;;4.80;2.20;;;;;;;25.72;41.58;100394.10;105994;1289;61220;-81
2022/06/08 11:23:15;;;;;;;6.20;2.20;;;;;;;25.72;41.47;100398.23;105852;1288;61275;-81
2022/06/08 11:25:49;;;;;;;3.50;2.10;;;;;;;25.73;41.45;100391.51;105954;1289;73901;-81
2022/06/08 11:28:31;;;;;;;3.60;2.10;;;;;;;25.73;41.59;100387.55;106256;1289;74403;-81
2022/06/08 11:31:29;;;;;;;4.80;2.10;;;;;;;25.73;41.34;100386.46;106158;1283;61304;-81
2022/06/08 11:34:09;;;;;;;7.00;2.20;;;;;;;25.73;41.31;100382.45;106385;1283;61697;-78
2022/06/08 11:37:09;;;;;;;3.90;2.10;;;;;;;25.73;41.35;100381.07;106535;1283;73658;-80
2022/06/08 11:40:30;;;;;;;5.10;2.50;;;;;;;25.72;41.13;100380.21;106719;1283;74871;-80
2022/06/08 11:43:14;;;;;;;5.60;2.20;;;;;;;25.71;41.06;100384.80;106114;1289;61689;-82
2022/06/08 11:45:47;;;;;;;5.10;2.40;;;;;;;25.72;41.07;100382.77;106005;1289;61248;-81
2022/06/08 11:48:15;;;;;;;4.50;2.40;;;;;;;25.72;40.85;100386.69;106118;1288;71745;-83
2022/06/08 11:50:48;;;;;;;3.60;2.50;;;;;;;25.72;40.66;100387.58;105837;1289;75519;-81
2022/06/08 11:53:28;;;;;;;5.70;2.50;;;;;;;25.73;40.65;100389.37;105919;1289;61175;-80